Latest Weather Observations for Lucas Heights (ANSTO)

IDN60801

Issued at 1:53 am EDT Saturday 29 February 2020 (issued every 10 minutes, with the page automatically refreshed every 10 minutes)

About weather observations | Map of weather stations | Latest weather observations for NSW | Other Formats
Station Details ID: 066023 Name: LUCAS HEIGHTS (ANSTO) Lat: -34.05 Lon: 150.98 Height: 140.0 m
Data from the previous 72 hours. | See also: Recent months for locations in New South Wales
Date/Time
EDT
Temp
°C
App
Temp
°C
Dew
Point
°C
Rel
Hum
%
Delta-T
°C
Wind Press
QNH
hPa
Press
MSL
hPa
Rain since
9am
mm
Dir  Spd
km/h
Gust
km/h
Spd
kts
Gust
kts
29/01:30am 18.0 16.4 13.8 76 2.4 SE 15 19 8 10 1017.3 - 0.0
29/01:15am 18.0 16.7 13.6 75 2.5 SE 13 17 7 9 1017.4 - 0.0
29/01:00am 18.0 16.7 13.6 75 2.5 SSE 13 15 7 8 1017.4 - 0.0
29/12:45am 18.0 16.3 13.6 75 2.5 SSE 15 17 8 9 1017.4 - 0.0
29/12:30am 17.8 16.4 13.5 76 2.4 SSE 13 13 7 7 1017.4 - 0.0
29/12:15am 17.8 16.0 13.4 75 2.5 SSE 15 15 8 8 1017.4 - 0.0
29/12:00am 17.7 16.3 13.4 76 2.4 SE 13 15 7 8 1017.4 - 0.0
 
Date/Time
EDT
Temp
°C
App
Temp
°C
Dew
Point
°C
Rel
Hum
%
Delta-T
°C
Wind Press
QNH
hPa
Press
MSL
hPa
Rain since
9am
mm
Dir  Spd
km/h
Gust
km/h
Spd
kts
Gust
kts
28/11:45pm 17.4 15.6 13.3 77 2.3 SSE 15 13 8 7 1017.4 - 0.0
28/11:30pm 17.3 15.5 13.3 77 2.3 SE 15 17 8 9 1017.3 - 0.0
28/11:15pm 17.2 15.4 13.4 78 2.2 SE 15 17 8 9 1017.3 - 0.0
28/11:00pm 17.1 15.3 13.2 78 2.2 SE 15 17 8 9 1017.3 - 0.0
28/10:45pm 17.1 14.9 13.2 78 2.2 SE 17 17 9 9 1017.3 - 0.0
28/10:30pm 17.2 14.9 13.1 77 2.3 SE 17 17 9 9 1017.3 - 0.0
28/10:15pm 17.2 15.3 13.0 76 2.4 SE 15 17 8 9 1017.2 - 0.0
28/10:00pm 17.5 15.6 13.0 75 2.5 SE 15 17 8 9 1017.2 - 0.0
28/09:45pm 17.8 15.9 13.0 73 2.7 SE 15 19 8 10 1017.2 - 0.0
28/09:30pm 17.9 15.6 13.0 73 2.8 SE 17 19 9 10 1016.9 - 0.0
28/09:15pm 18.1 15.8 13.1 72 2.8 SE 17 20 9 11 1016.8 - 0.0
28/09:00pm 18.2 16.4 13.2 72 2.8 SE 15 20 8 11 1016.6 - 0.0
28/08:45pm 18.3 16.1 13.4 73 2.8 SE 17 20 9 11 1016.3 - 0.0
28/08:30pm 18.4 16.2 13.4 72 2.9 SE 17 22 9 12 1016.0 - 0.0
28/08:15pm 18.6 16.4 13.3 71 3.0 SE 17 22 9 12 1015.7 - 0.0
28/08:00pm 18.8 16.0 13.3 70 3.1 ESE 20 26 11 14 1015.5 - 0.0
28/07:45pm 18.9 15.7 13.2 69 3.2 ESE 22 28 12 15 1015.2 - 0.0
28/07:30pm 19.1 16.4 13.4 69 3.3 ESE 20 26 11 14 1015.1 - 0.0
28/07:15pm 19.3 16.3 13.6 69 3.3 ESE 22 28 12 15 1014.8 - 0.0
28/07:00pm 19.4 15.5 13.4 68 3.4 ESE 26 30 14 16 1014.6 - 0.0
28/06:45pm 19.7 15.8 13.4 67 3.6 ESE 26 32 14 17 1014.4 - 0.0
28/06:30pm 20.0 16.2 13.6 66 3.7 ESE 26 32 14 17 1014.1 - 0.0
28/06:15pm 20.4 16.2 13.5 64 4.0 ESE 28 32 15 17 1013.8 - 0.0
28/06:00pm 20.7 16.1 13.5 63 4.2 ESE 30 33 16 18 1013.6 - 0.0
28/05:45pm 20.9 16.7 13.4 62 4.3 ESE 28 32 15 17 1013.4 - 0.0
28/05:30pm 20.6 17.1 13.5 63 4.1 SE 24 33 13 18 1013.3 - 0.0
28/05:15pm 20.5 15.9 13.5 64 4.0 ESE 30 35 16 19 1013.1 - 0.0
28/05:00pm 20.5 15.6 13.6 64 4.0 ESE 32 39 17 21 1013.0 - 0.0
28/04:45pm 21.4 16.5 14.2 63 4.2 ESE 33 41 18 22 1012.7 - 0.0
28/04:30pm 21.6 17.4 14.6 64 4.1 SE 30 35 16 19 1012.5 - 0.0
28/04:15pm 21.8 18.4 14.7 64 4.2 SE 26 33 14 18 1012.4 - 0.0
28/04:00pm 22.2 18.3 14.5 61 4.6 ESE 28 35 15 19 1012.2 - 0.0
28/03:45pm 22.2 19.2 14.7 62 4.4 SE 24 32 13 17 1012.1 - 0.0
28/03:30pm 21.8 18.4 14.8 64 4.2 SE 26 35 14 19 1012.0 - 0.0
28/03:15pm 22.0 18.0 15.1 65 4.1 ESE 30 35 16 19 1012.0 - 0.0
28/03:00pm 22.3 18.2 15.0 63 4.4 ESE 30 35 16 19 1012.0 - 0.0
28/02:45pm 22.1 18.0 14.8 63 4.3 ESE 30 37 16 20 1012.2 - 0.0
28/02:30pm 21.9 18.8 14.5 63 4.4 SE 24 30 13 16 1012.3 - 0.0
28/02:15pm 22.5 19.5 13.7 57 5.1 SE 22 33 12 18 1012.3 - 0.0
28/02:00pm 22.6 19.2 13.8 57 5.2 SSE 24 33 13 18 1012.2 - 0.0
28/01:45pm 22.4 19.7 13.4 56 5.2 SE 20 30 11 16 1012.2 - 0.0
28/01:30pm 22.3 19.1 13.2 56 5.3 SE 22 30 12 16 1012.3 - 0.0
28/01:15pm 22.7 19.4 12.9 54 5.7 SE 22 32 12 17 1012.3 - 0.0
28/01:00pm 22.6 19.0 12.9 54 5.6 SE 24 32 13 17 1012.3 - 0.0
28/12:45pm 22.6 19.2 12.4 52 5.8 SE 22 28 12 15 1012.2 - 0.0
28/12:30pm 23.1 19.7 11.1 46 6.7 SE 20 28 11 15 1012.3 - 0.0
28/12:15pm 22.9 19.0 9.4 42 7.3 SE 20 28 11 15 1012.2 - 0.0
28/12:00pm 23.2 18.6 5.4 31 9.0 SSE 19 30 10 16 1012.2 - 0.0
28/11:45am 22.8 18.1 5.0 31 8.9 SSE 19 28 10 15 1012.1 - 0.0
28/11:30am 22.6 17.9 5.1 32 8.8 SE 19 22 10 12 1012.1 - 0.0
28/11:15am 22.4 18.7 6.2 35 8.3 ESE 15 22 8 12 1012.0 - 0.0
28/11:00am 22.0 18.4 6.9 37 7.8 ESE 15 19 8 10 1011.9 - 0.0
28/10:45am 22.0 17.8 5.9 35 8.2 SSE 17 20 9 11 1011.8 - 0.0
28/10:30am 21.9 17.7 5.8 35 8.1 S 17 28 9 15 1011.5 - 0.0
28/10:15am 21.6 16.8 5.4 34 8.1 S 20 24 11 13 1011.3 - 0.0
28/10:00am 21.7 16.8 5.1 34 8.3 S 20 26 11 14 1011.1 - 0.0
28/09:45am 21.4 16.7 5.1 34 8.1 S 19 24 10 13 1011.0 - 0.0
28/09:30am 20.9 16.0 4.9 35 7.9 S 20 26 11 14 1010.9 - 0.0
28/09:15am 20.4 16.2 5.6 38 7.4 S 17 22 9 12 1010.8 - 0.0
28/09:00am 19.7 16.0 6.2 41 6.8 S 15 22 8 12 1010.8 - 0.0
28/08:45am 18.8 14.6 5.7 42 6.5 S 17 26 9 14 1010.7 - 0.0
28/08:30am 18.1 15.0 5.4 43 6.2 S 11 19 6 10 1010.6 - 0.0
28/08:15am 17.1 13.3 5.7 47 5.6 S 15 19 8 10 1010.3 - 0.0
28/08:00am 15.8 10.6 5.7 51 4.9 S 22 26 12 14 1010.1 - 0.0
28/07:45am 14.5 9.8 6.2 57 4.0 SSE 20 22 11 12 1010.0 - 0.0
28/07:30am 13.5 8.7 7.3 66 3.0 SSE 22 22 12 12 1009.8 - 0.0
28/07:15am 12.4 8.1 8.0 74 2.2 SSE 20 22 11 12 1009.4 - 0.0
28/07:00am 12.3 8.2 7.7 73 2.3 SSE 19 17 10 9 1009.0 - 0.0
28/06:45am 12.7 8.5 7.4 70 2.6 S 19 17 10 9 1008.7 - 0.0
28/06:30am 12.6 8.6 8.4 75 2.1 S 19 19 10 10 1008.4 - 0.0
28/06:15am 13.3 9.3 8.3 72 2.5 S 19 19 10 10 1008.2 - 0.0
28/06:00am 12.9 9.1 9.7 81 1.6 SSE 20 22 11 12 1008.4 - 0.0
28/05:45am 13.1 9.2 10.7 85 1.3 S 22 22 12 12 1008.4 - 0.0
28/05:30am 14.1 11.0 11.6 85 1.3 S 19 19 10 10 1008.2 - 0.0
28/05:15am 14.3 12.1 12.2 87 1.1 S 15 20 8 11 1008.2 - 0.0
28/05:00am 14.6 11.9 12.8 89 1.0 S 19 22 10 12 1008.1 - 0.0
28/04:45am 15.1 11.6 13.5 90 0.9 SSW 24 26 13 14 1007.9 - 0.0
28/04:30am 15.0 11.9 13.5 91 0.8 SSW 22 26 12 14 1007.9 - 0.0
28/04:15am 15.1 13.4 13.6 91 0.8 S 15 17 8 9 1007.8 - 0.0
28/04:00am 15.7 13.4 14.0 90 1.0 SW 19 19 10 10 1007.7 - 0.0
28/03:45am 16.7 15.5 15.1 90 0.9 WSW 15 17 8 9 1007.4 - 0.0
28/03:30am 16.9 16.2 15.3 90 0.9 WSW 13 13 7 7 1007.5 - 0.0
28/03:15am 17.4 16.5 15.8 90 0.9 WSW 15 13 8 7 1007.6 - 0.0
28/03:00am 17.5 17.0 15.9 90 0.9 SW 13 13 7 7 1007.7 - 0.0
28/02:45am 17.0 16.3 15.4 90 0.9 WSW 13 13 7 7 1007.8 - 0.0
28/02:30am 17.0 16.2 15.2 89 1.1 SW 13 13 7 7 1008.0 - 0.0
28/02:15am 17.8 17.7 16.0 89 1.1 SW 11 11 6 6 1008.0 - 0.0
28/02:00am 17.7 17.6 16.0 90 1.0 WSW 11 11 6 6 1008.1 - 0.0
28/01:45am 17.2 17.2 15.2 88 1.2 WSW 9 9 5 5 1008.2 - 0.0
28/01:30am 17.6 17.3 15.4 87 1.3 WSW 11 11 6 6 1008.4 - 0.0
28/01:15am 18.2 18.1 15.9 86 1.4 SW 11 11 6 6 1008.4 - 0.0
28/01:00am 18.7 18.3 16.3 86 1.4 SW 13 13 7 7 1008.5 - 0.0
28/12:45am 18.9 19.0 16.6 86 1.4 WSW 11 11 6 6 1008.5 - 0.0
28/12:30am 18.7 18.8 16.5 87 1.3 WSW 11 11 6 6 1008.4 - 0.0
28/12:15am 18.4 18.4 16.2 87 1.3 WSW 11 11 6 6 1008.5 - 0.0
28/12:00am 18.6 19.3 16.1 85 1.5 W 7 9 4 5 1008.5 - 0.0
 
Date/Time
EDT
Temp
°C
App
Temp
°C
Dew
Point
°C
Rel
Hum
%
Delta-T
°C
Wind Press
QNH
hPa
Press
MSL
hPa
Rain since
9am
mm
Dir  Spd
km/h
Gust
km/h
Spd
kts
Gust
kts
27/11:45pm 19.3 20.2 16.5 84 1.7 WNW 7 11 4 6 1008.4 - 0.0
27/11:30pm 19.7 19.2 17.0 84 1.6 NW 15 15 8 8 1008.5 - 0.0
27/11:15pm 19.3 18.8 16.8 85 1.5 NW 15 15 8 8 1008.7 - 0.0
27/11:00pm 19.1 19.2 16.5 85 1.6 NNW 11 11 6 6 1008.7 - 0.0
27/10:45pm 19.4 19.5 16.6 84 1.7 N 11 15 6 8 1008.7 - 0.0
27/10:30pm 19.5 19.3 16.7 84 1.7 N 13 15 7 8 1008.7 - 0.0
27/10:15pm 19.6 19.7 16.6 83 1.8 N 11 15 6 8 1008.8 - 0.0
27/10:00pm 19.8 19.6 16.6 82 1.9 N 13 17 7 9 1008.7 - 0.0
27/09:45pm 20.1 19.9 16.7 81 2.1 N 13 17 7 9 1008.7 - 0.0
27/09:30pm 20.3 19.8 16.8 80 2.1 NNE 15 17 8 9 1008.7 - 0.0
27/09:15pm 20.4 19.8 16.7 79 2.3 NNE 15 19 8 10 1008.6 - 0.0
27/09:00pm 20.5 19.9 16.7 79 2.3 NNE 15 19 8 10 1008.3 - 0.0
27/08:45pm 20.5 19.9 16.6 78 2.4 NNE 15 22 8 12 1008.1 - 0.0
27/08:30pm 20.7 19.7 16.6 77 2.5 NNE 17 22 9 12 1007.9 - 0.0
27/08:15pm 20.8 18.8 16.5 76 2.6 NNE 22 28 12 15 1007.6 - 0.0
27/08:00pm 20.8 19.3 16.4 76 2.7 NNE 19 28 10 15 1007.4 - 0.0
27/07:45pm 21.0 19.4 16.4 75 2.8 NNE 20 30 11 16 1007.1 - 0.0
27/07:30pm 21.2 19.1 16.2 73 3.0 NNE 22 28 12 15 1007.0 - 0.0
27/07:15pm 21.4 18.9 16.1 72 3.2 NNE 24 28 13 15 1006.8 - 0.0
27/07:00pm 21.7 18.8 16.0 70 3.4 NNE 26 35 14 19 1006.6 - 0.0
27/06:45pm 22.0 18.6 15.9 68 3.7 NNE 28 35 15 19 1006.4 - 0.0
27/06:30pm 22.1 18.7 15.8 67 3.8 NNE 28 39 15 21 1006.2 - 0.0
27/06:15pm 22.5 19.1 15.8 66 4.1 NNE 28 35 15 19 1006.1 - 0.0
27/06:00pm 22.6 19.2 15.7 65 4.2 NE 28 35 15 19 1006.1 - 0.0
27/05:45pm 22.9 19.8 15.5 63 4.5 NE 26 32 14 17 1006.1 - 0.0
27/05:30pm 23.4 21.5 15.8 62 4.6 NE 20 28 11 15 1006.1 - 0.0
27/05:15pm 23.8 21.6 15.9 61 4.8 NE 22 28 12 15 1006.1 - 0.0
27/05:00pm 23.7 21.4 15.8 61 4.8 ENE 22 26 12 14 1006.2 - 0.0
27/04:45pm 24.2 22.6 16.0 60 5.0 ENE 19 26 10 14 1006.2 - 0.0
27/04:30pm 23.4 21.5 15.3 60 4.9 NE 19 28 10 15 1006.4 - 0.0
27/04:15pm 23.8 21.7 15.2 58 5.2 NNE 20 28 11 15 1006.5 - 0.0
27/04:00pm 24.0 22.0 15.6 59 5.1 N 20 28 11 15 1006.7 - 0.0
27/03:45pm 23.3 20.9 15.3 60 4.8 NNE 22 28 12 15 1007.0 - 0.0
27/03:30pm 22.7 20.6 15.1 62 4.5 NNE 20 28 11 15 1007.3 - 0.0
27/03:15pm 22.9 20.3 14.9 60 4.8 NNE 22 28 12 15 1007.6 - 0.0
27/03:00pm 22.6 20.5 14.7 61 4.7 NE 19 28 10 15 1007.8 - 0.0
27/02:45pm 22.7 20.0 14.6 60 4.8 NE 22 28 12 15 1008.1 - 0.0
27/02:30pm 23.2 20.9 14.7 58 5.1 NE 20 22 11 12 1008.3 - 0.0
27/02:15pm 23.1 21.4 14.7 59 5.0 NNE 17 22 9 12 1008.6 - 0.0
27/02:00pm 23.2 21.5 14.8 59 5.0 NNE 17 26 9 14 1008.8 - 0.0
27/01:45pm 23.0 20.9 14.6 59 5.0 NE 19 26 10 14 1008.9 - 0.0
27/01:30pm 22.7 21.3 14.4 59 4.9 NE 15 22 8 12 1009.1 - 0.0
27/01:15pm 22.8 21.7 14.2 58 5.1 NNE 13 19 7 10 1009.4 - 0.0
27/01:00pm 22.9 22.1 13.9 57 5.3 NNW 11 22 6 12 1009.6 - 0.0
27/12:45pm 22.5 22.1 14.1 59 4.9 NNW 9 17 5 9 1009.9 - 0.0
27/12:30pm 21.8 21.6 13.7 60 4.7 - 7 11 4 6 1010.3 - 0.0
27/12:15pm 22.0 21.7 13.4 58 5.0 N 7 13 4 7 1010.5 - 0.0
27/12:00pm 21.8 21.5 13.3 58 4.9 NW 7 11 4 6 1010.8 - 0.0
27/11:45am 21.6 20.9 13.1 58 4.9 NNW 9 15 5 8 1011.0 - 0.0
27/11:30am 21.6 21.3 13.3 59 4.8 N 7 13 4 7 1011.1 - 0.0
27/11:15am 21.4 20.3 13.0 58 4.8 NNE 11 15 6 8 1011.2 - 0.0
27/11:00am 22.0 21.3 13.1 57 5.1 NNE 9 15 5 8 1011.2 - 0.0
27/10:45am 21.8 21.1 13.1 57 5.0 - 9 15 5 8 1011.3 - 0.0
27/10:30am 21.3 20.5 13.0 59 4.8 N 9 15 5 8 1011.3 - 0.0
27/10:15am 21.3 20.2 13.1 59 4.7 NE 11 19 6 10 1011.3 - 0.0
27/10:00am 20.9 20.5 13.0 60 4.5 SSE 7 9 4 5 1011.4 - 0.0
27/09:45am 20.7 20.3 13.1 61 4.4 SSE 7 9 4 5 1011.6 - 0.0
27/09:30am 20.3 20.0 13.3 64 4.0 S 7 11 4 6 1011.7 - 0.0
27/09:15am 20.1 19.7 13.1 64 4.0 S 7 11 4 6 1011.7 - 0.0
27/09:00am 19.5 19.1 13.0 66 3.7 SSE 7 11 4 6 1011.9 - 3.2
27/08:45am 19.4 18.7 13.2 67 3.5 SSE 9 15 5 8 1011.9 - 3.2
27/08:30am 18.9 18.2 13.3 70 3.2 SSE 9 13 5 7 1011.9 - 3.2
27/08:15am 18.5 17.5 13.4 72 2.9 SSE 11 13 6 7 1011.9 - 3.2
27/08:00am 17.9 17.0 13.6 76 2.5 S 11 11 6 6 1012.0 - 3.2
27/07:45am 17.5 17.2 13.3 76 2.4 S 7 7 4 4 1012.0 - 3.2
27/07:30am 17.3 16.5 13.0 76 2.4 SSE 9 11 5 6 1011.9 - 3.2
27/07:15am 17.2 16.8 12.9 76 2.4 SSE 7 11 4 6 1011.8 - 3.2
27/07:00am 17.3 16.5 12.9 75 2.5 SSE 9 13 5 7 1011.7 - 3.2
27/06:45am 17.4 17.0 13.0 75 2.5 SSE 7 11 4 6 1011.6 - 3.2
27/06:30am 17.5 16.7 13.0 75 2.5 SE 9 11 5 6 1011.5 - 3.2
27/06:15am 17.5 17.1 13.0 75 2.5 SE 7 11 4 6 1011.4 - 3.2
27/06:00am 17.5 16.8 13.1 75 2.5 ESE 9 13 5 7 1011.3 - 3.2
27/05:45am 17.4 17.0 13.1 76 2.4 SE 7 11 4 6 1011.1 - 3.2
27/05:30am 17.4 16.3 13.1 76 2.4 SE 11 15 6 8 1011.0 - 3.2
27/05:15am 17.4 16.3 13.2 76 2.4 SSE 11 17 6 9 1011.1 - 3.2
27/05:00am 17.5 16.5 13.3 76 2.4 S 11 15 6 8 1011.0 - 3.2
27/04:45am 17.4 16.0 13.3 77 2.3 SE 13 17 7 9 1010.9 - 3.2
27/04:30am 17.4 15.6 13.4 77 2.3 SSE 15 26 8 14 1010.8 - 3.2
27/04:15am 17.5 14.9 13.3 76 2.4 SE 19 28 10 15 1010.7 - 3.2
27/04:00am 17.7 14.9 13.2 75 2.5 SSE 20 26 11 14 1010.7 - 3.2
27/03:45am 17.9 15.6 13.0 73 2.8 SSE 17 24 9 13 1010.7 - 3.2
27/03:30am 18.0 15.1 13.0 72 2.8 SE 20 28 11 15 1010.6 - 3.2
27/03:15am 18.1 14.8 12.9 71 2.9 SE 22 32 12 17 1010.6 - 3.2
27/03:00am 18.1 15.2 12.9 71 2.9 SE 20 28 11 15 1010.8 - 3.2
27/02:45am 18.1 15.2 12.9 71 2.9 SE 20 26 11 14 1010.9 - 3.2
27/02:30am 18.1 14.8 12.8 71 3.0 SSE 22 30 12 16 1010.9 - 3.2
27/02:15am 18.2 14.6 12.9 71 3.0 SSE 24 30 13 16 1011.0 - 3.2
27/02:00am 18.2 15.0 13.0 71 2.9 SSE 22 30 12 16 1011.1 - 3.2
27/01:45am 18.2 15.3 12.9 71 3.0 SSE 20 26 11 14 1011.3 - 3.2
27/01:30am 18.2 15.3 13.0 71 2.9 SSE 20 32 11 17 1011.4 - 3.2
27/01:15am 18.3 15.7 13.2 72 2.9 SSE 19 28 10 15 1011.3 - 3.2
27/01:00am 18.3 15.2 13.3 72 2.8 SSE 22 32 12 17 1011.2 - 3.2
27/12:45am 18.3 15.2 13.4 73 2.8 SSE 22 35 12 19 1010.9 - 3.2
27/12:30am 18.2 15.2 13.7 75 2.6 SE 22 32 12 17 1010.8 - 3.2
27/12:15am 18.2 15.2 13.8 75 2.5 SE 22 32 12 17 1010.7 - 3.2
27/12:00am 18.2 14.8 13.8 75 2.5 SSE 24 35 13 19 1010.4 - 3.2
 
Date/Time
EDT
Temp
°C
App
Temp
°C
Dew
Point
°C
Rel
Hum
%
Delta-T
°C
Wind Press
QNH
hPa
Press
MSL
hPa
Rain since
9am
mm
Dir  Spd
km/h
Gust
km/h
Spd
kts
Gust
kts
26/11:45pm 18.1 13.6 13.8 76 2.5 SSE 30 35 16 19 1010.2 - 3.2
26/11:30pm 18.1 13.0 13.7 75 2.5 SSE 33 44 18 24 1010.0 - 3.2
26/11:15pm 18.2 12.4 14.0 76 2.4 SSE 37 48 20 26 1009.9 - 3.2
26/11:00pm 18.3 13.4 14.2 77 2.4 SSE 33 48 18 26 1009.8 - 3.2
26/10:45pm 18.3 12.6 14.2 77 2.4 SSE 37 54 20 29 1009.6 - 3.2
26/10:30pm 18.3 12.2 14.2 77 2.4 SSE 39 65 21 35 1009.2 - 3.2
26/10:15pm 18.3 10.5 14.1 76 2.4 SSE 48 63 26 34 1008.8 - 3.2
26/10:00pm 18.4 10.3 14.4 77 2.3 SSE 50 63 27 34 1008.6 - 3.2
26/09:45pm 18.5 11.3 14.8 79 2.2 SSE 46 59 25 32 1008.5 - 3.2
26/09:30pm 18.5 11.4 15.1 80 2.0 SSE 46 56 25 30 1008.3 - 3.2
26/09:15pm 18.8 11.1 15.4 80 2.0 SSE 50 70 27 38 1008.0 - 3.2
26/09:00pm 19.0 11.7 15.6 80 2.0 SSE 48 63 26 34 1007.6 - 3.2
26/08:45pm 19.1 11.8 15.6 80 2.1 SSE 48 61 26 33 1007.3 - 3.2
26/08:30pm 19.2 10.9 15.8 81 2.0 SSE 54 69 29 37 1007.0 - 3.2
26/08:15pm 19.2 10.9 15.9 81 2.0 SSE 54 70 29 38 1006.6 - 3.2
26/08:00pm 19.5 12.0 16.0 80 2.1 SSE 50 65 27 35 1006.4 - 3.2
26/07:45pm 20.2 12.0 16.2 78 2.4 SSE 54 70 29 38 1006.1 - 3.2
26/07:30pm 21.5 15.5 16.4 72 3.1 SSE 43 57 23 31 1005.7 - 3.2
26/07:15pm 25.2 19.7 16.8 59 5.2 S 41 61 22 33 1004.8 - 3.2
26/07:00pm 28.2 28.3 18.4 55 6.3 NW 15 19 8 10 1003.6 - 3.2
26/06:45pm 28.4 27.2 18.4 54 6.4 NW 22 28 12 15 1003.2 - 3.2
26/06:30pm 28.4 27.8 18.9 56 6.2 NNW 20 28 11 15 1003.2 - 3.2
26/06:15pm 28.7 28.6 18.8 55 6.4 NNW 17 22 9 12 1003.2 - 3.2
26/06:00pm 29.7 29.6 18.8 52 7.1 NNW 17 24 9 13 1003.2 - 3.2
26/05:45pm 29.9 29.7 18.6 50 7.3 NNW 17 24 9 13 1003.1 - 3.2
26/05:30pm 30.1 29.8 18.3 49 7.6 NNW 17 22 9 12 1003.1 - 3.2
26/05:15pm 29.9 29.0 17.8 48 7.8 NW 19 28 10 15 1002.8 - 3.2
26/05:00pm 30.4 28.8 17.5 46 8.2 NW 22 28 12 15 1002.6 - 3.2
26/04:45pm 30.5 29.0 17.7 46 8.2 NW 22 26 12 14 1002.6 - 3.2
26/04:30pm 30.6 29.4 17.6 45 8.3 NW 20 26 11 14 1002.2 - 3.2
26/04:15pm 30.4 28.9 17.8 46 8.1 NW 22 26 12 14 1002.1 - 3.2
26/04:00pm 30.3 28.3 17.5 46 8.2 NW 24 28 13 15 1002.3 - 3.2
26/03:45pm 30.7 28.0 17.5 45 8.4 NW 28 37 15 20 1002.5 - 3.2
26/03:30pm 30.6 28.0 17.7 46 8.3 WNW 28 39 15 21 1002.8 - 3.2
26/03:15pm 30.1 26.7 17.8 47 7.9 WNW 32 41 17 22 1003.0 - 3.2
26/03:00pm 29.6 26.4 18.1 50 7.4 WNW 32 41 17 22 1003.4 - 3.2
26/02:45pm 28.9 27.5 18.8 54 6.5 WNW 24 33 13 18 1003.7 - 3.2
26/02:30pm 27.8 27.7 20.0 62 5.1 WNW 20 26 11 14 1004.2 - 3.2
26/02:15pm 26.1 25.6 20.0 69 4.0 W 22 24 12 13 1004.4 - 3.2
26/02:00pm 24.7 23.5 19.3 72 3.5 W 24 28 13 15 1004.6 - 3.2
26/01:45pm 24.0 22.6 18.9 73 3.3 WSW 24 28 13 15 1004.9 - 3.2
26/01:30pm 23.7 21.6 18.9 74 3.1 WSW 28 28 15 15 1005.0 - 3.2
26/01:15pm 24.2 21.1 18.4 70 3.7 WSW 32 37 17 20 1005.2 - 3.2
26/01:00pm 28.6 25.4 17.2 50 7.2 W 30 56 16 30 1005.1 - 3.0
26/12:45pm 29.9 27.4 17.0 45 8.2 WNW 26 37 14 20 1004.9 - 0.0
26/12:30pm 30.2 27.7 17.1 45 8.3 WNW 26 37 14 20 1005.1 - 0.0
26/12:15pm 30.1 29.3 18.0 48 7.8 WNW 19 32 10 17 1005.3 - 0.0
26/12:00pm 29.8 29.0 18.1 49 7.5 NW 19 26 10 14 1005.4 - 0.0
26/11:45am 29.2 27.9 18.1 51 7.1 NW 22 28 12 15 1005.6 - 0.0
26/11:30am 28.8 27.8 18.0 52 6.9 NW 20 28 11 15 1005.6 - 0.0
26/11:15am 28.6 27.9 18.3 53 6.6 NNW 19 28 10 15 1005.9 - 0.0
26/11:00am 28.4 27.9 18.7 55 6.3 NW 19 22 10 12 1006.1 - 0.0
26/10:45am 27.9 27.1 18.5 56 6.0 NW 20 26 11 14 1006.2 - 0.0
26/10:30am 27.3 26.9 18.8 59 5.5 NW 19 24 10 13 1006.4 - 0.0
26/10:15am 26.8 27.5 18.8 61 5.1 WNW 13 20 7 11 1006.5 - 0.0
26/10:00am 26.0 25.9 18.8 64 4.6 WNW 17 20 9 11 1006.6 - 0.0
26/09:45am 25.3 25.7 18.9 67 4.1 WNW 15 20 8 11 1006.8 - 0.0
26/09:30am 24.6 24.5 18.7 69 3.8 WNW 17 20 9 11 1006.9 - 0.0
26/09:15am 24.4 24.3 18.8 71 3.6 WNW 17 19 9 10 1006.9 - 0.0
26/09:00am 23.7 24.0 18.7 73 3.2 WNW 15 19 8 10 1006.9 - 0.0
26/08:45am 23.4 23.6 18.6 74 3.0 NW 15 19 8 10 1007.1 - 0.0
26/08:30am 23.2 22.7 18.7 76 2.9 WNW 19 22 10 12 1007.1 - 0.0
26/08:15am 22.6 22.0 18.5 77 2.6 WNW 19 20 10 11 1007.2 - 0.0
26/08:00am 22.4 22.2 18.6 79 2.4 WNW 17 19 9 10 1007.2 - 0.0
26/07:45am 22.2 22.0 18.4 79 2.4 WNW 17 20 9 11 1007.3 - 0.0
26/07:30am 22.1 21.5 18.4 79 2.3 WNW 19 19 10 10 1007.4 - 0.0
26/07:15am 21.7 20.8 18.3 81 2.1 WNW 20 20 11 11 1007.5 - 0.0
26/07:00am 21.5 20.8 18.2 81 2.1 WNW 19 19 10 10 1007.5 - 0.0
26/06:45am 21.4 20.5 18.2 82 2.0 WNW 20 20 11 11 1007.5 - 0.0
26/06:30am 21.4 20.2 18.3 82 1.9 WNW 22 20 12 11 1007.5 - 0.0
26/06:15am 21.4 20.2 18.4 83 1.9 WNW 22 22 12 12 1007.6 - 0.0
26/06:00am 21.2 20.0 18.3 83 1.8 WNW 22 22 12 12 1007.7 - 0.0
26/05:45am 21.2 20.3 18.3 83 1.8 W 20 22 11 12 1007.7 - 0.0
26/05:30am 21.2 20.3 18.3 83 1.8 W 20 22 11 12 1007.7 - 0.0
26/05:15am 21.1 19.9 18.3 84 1.8 WNW 22 22 12 12 1007.6 - 0.0
26/05:00am 20.9 20.2 18.2 84 1.7 W 19 19 10 10 1007.5 - 0.0
26/04:45am 21.0 20.6 18.1 83 1.8 W 17 17 9 9 1007.6 - 0.0
26/04:30am 21.0 20.7 18.2 84 1.8 W 17 19 9 10 1007.6 - 0.0
26/04:15am 21.1 21.1 18.2 83 1.8 W 15 15 8 8 1007.8 - 0.0
26/04:00am 21.2 21.0 18.4 84 1.8 WNW 17 15 9 8 1008.0 - 0.0
26/03:45am 21.0 21.4 18.2 84 1.8 NNW 13 13 7 7 1008.1 - 0.0
26/03:30am 21.2 22.0 18.2 83 1.9 NNW 11 13 6 7 1008.2 - 0.0
26/03:15am 21.4 22.3 18.4 83 1.9 NNW 11 11 6 6 1008.3 - 0.0
26/03:00am 21.4 22.3 18.3 82 1.9 NNW 11 13 6 7 1008.4 - 0.0
26/02:45am 21.7 22.6 18.4 81 2.1 NNW 11 11 6 6 1008.6 - 0.0
26/02:30am 21.9 22.8 18.5 81 2.1 NNW 11 13 6 7 1008.8 - 0.0
26/02:15am 21.8 22.8 18.6 82 2.0 NNW 11 15 6 8 1009.1 - 0.0
26/02:00am 21.7 22.3 18.6 82 2.0 N 13 17 7 9 1009.4 - 0.0

Other formats

Comma delimited format used in spreadsheet applications
http://www.bom.gov.au/fwo/IDN60801/IDN60801.95757.axf

JavaScript Object Notation format (JSON) in row-major order
http://www.bom.gov.au/fwo/IDN60801/IDN60801.95757.json

Data quality

Most of these data are generated automatically and are frequently updated. Quality checks on data are not normally performed. It is possible for incorrect values to appear. Refer to information at About Latest Weather Observations and please check the disclaimer before using these data.